Eagle — WBP2187 — position and weather

sailwx.info

Track history (hours):
 
Tides and Currents Weather Stations Pressure Air Temp Water Temp Dewpoint Dewpoint Depression Visibility Wind Speed Wind Dir Waves Ship Positions

Eagle

Owner: Harley Marine Services, INC, SEATTLE, WA. More information available from US FCC via Universal Licensing System and Coast Guard Vessel Documentation Center.

Last reported at 2018-Jul-20 04:29 UTC. Time now 2018-Jul-20 04:31 UTC.
Position N 47°35' W 122°21'.

Length 32 m; draft 4 m.

Type: Towing. MMSI: 366978690.

Date/timePositionNaut miles runAvg speedWind from/ knotsBaromVisibWave heightAir tempDewpointWater temp
2018-Jul-20 04:29N 47°35' W 122°21'1 1.9
2018-Jul-20 04:00N 47°34' W 122°21'0 0.0
2018-Jul-20 03:30N 47°34' W 122°21'0 0.0
2018-Jul-20 02:59N 47°34' W 122°21'1 2.1
2018-Jul-20 02:30N 47°35' W 122°21'0 0.2
2018-Jul-20 02:00N 47°35' W 122°21'0 0.0
2018-Jul-20 01:29N 47°35' W 122°21'0 0.1
2018-Jul-20 00:59N 47°35' W 122°21'0 0.0
2018-Jul-20 00:29N 47°35' W 122°21'0 0.0
2018-Jul-19 23:53N 47°35' W 122°21'0 0.0
2018-Jul-19 23:29N 47°35' W 122°21'1 2.1
2018-Jul-19 22:59N 47°36' W 122°22'3 6.3
2018-Jul-19 22:31N 47°34' W 122°26'4 8.6
2018-Jul-19 22:00N 47°31' W 122°29'5 9.0
2018-Jul-19 21:30N 47°26' W 122°31'4 9.1
2018-Jul-19 21:01N 47°22' W 122°32'3 6.6
2018-Jul-19 20:30N 47°19' W 122°30'4 7.4
2018-Jul-19 20:00N 47°17' W 122°25'2 0.3
2018-Jul-19 14:01N 47°16' W 122°23'1 1.9
2018-Jul-19 13:15N 47°17' W 122°25'0 1.7
2018-Jul-19 13:00N 47°17' W 122°25'1 1.4
2018-Jul-19 12:07N 47°17' W 122°23'1 1.1
2018-Jul-19 11:37N 47°17' W 122°24'1 6.2
2018-Jul-19 11:30N 47°17' W 122°25'2 1.4
2018-Jul-19 09:59N 47°16' W 122°23'0 0.0
2018-Jul-19 09:29N 47°16' W 122°23'0 0.0
2018-Jul-19 08:59N 47°16' W 122°23'0 0.0
2018-Jul-19 08:29N 47°16' W 122°23'0 0.0
2018-Jul-19 07:56N 47°16' W 122°23'0 0.0
2018-Jul-19 07:29N 47°16' W 122°23'0 0.0
2018-Jul-19 06:59N 47°16' W 122°23'0 0.0
2018-Jul-19 06:29N 47°16' W 122°23'0 0.0
2018-Jul-19 05:59N 47°16' W 122°23'0 0.0
2018-Jul-19 05:29N 47°16' W 122°23'0 0.0
2018-Jul-19 04:59N 47°16' W 122°23'0 0.0
2018-Jul-19 04:26N 47°16' W 122°23'0 0.0
2018-Jul-19 03:59N 47°16' W 122°23'0 0.0
2018-Jul-19 03:23N 47°16' W 122°23'0 0.0
2018-Jul-19 02:50N 47°16' W 122°23'0 0.0
2018-Jul-19 02:29N 47°16' W 122°23'0 0.0
2018-Jul-19 01:58N 47°16' W 122°23'0 0.0
2018-Jul-19 01:28N 47°16' W 122°23'0 0.0
2018-Jul-19 00:55N 47°16' W 122°23'0 0.0
2018-Jul-19 00:28N 47°16' W 122°23'0 0.0
2018-Jul-18 23:52N 47°16' W 122°23'0 0.3
2018-Jul-18 23:17N 47°16' W 122°23'1 2.2
2018-Jul-18 22:50N 47°16' W 122°24'0 0.1
2018-Jul-18 18:46N 47°16' W 122°24'1 0.1
2018-Jul-18 03:33N 47°16' W 122°23'0 0.0
2018-Jul-18 03:27N 47°16' W 122°23'2 1.6
2018-Jul-18 02:25N 47°17' W 122°25'0 0.0
2018-Jul-18 01:49N 47°17' W 122°25'0 0.0
2018-Jul-18 01:28N 47°17' W 122°25'0 0.0
2018-Jul-18 00:55N 47°17' W 122°25'0 0.0
2018-Jul-18 00:13N 47°17' W 122°25'0 0.0
2018-Jul-17 23:55N 47°17' W 122°25'0 0.0
2018-Jul-17 17:55N 47°17' W 122°25'0 0.0
2018-Jul-17 17:28N 47°17' W 122°25'0 0.0
2018-Jul-17 16:36N 47°17' W 122°25'0 0.0
2018-Jul-17 16:27N 47°17' W 122°25'0 0.0
2018-Jul-17 15:43N 47°17' W 122°25'0 0.0
2018-Jul-17 15:28N 47°17' W 122°25'0 0.0
2018-Jul-17 06:17N 47°17' W 122°24'1 2.5
2018-Jul-17 06:00N 47°17' W 122°25'2 3.8
2018-Jul-17 05:28N 47°16' W 122°23'1 0.1
2018-Jul-16 21:14N 47°16' W 122°24'1 0.9
2018-Jul-16 20:39N 47°16' W 122°23'0 0.0
2018-Jul-16 20:21N 47°16' W 122°23'0 0.0
2018-Jul-16 20:00N 47°16' W 122°23'0 0.0
2018-Jul-16 19:30N 47°16' W 122°23'0 0.0
2018-Jul-16 19:00N 47°16' W 122°23'0 0.0
2018-Jul-16 18:30N 47°16' W 122°23'0 0.0
2018-Jul-16 18:00N 47°16' W 122°23'0 0.0
2018-Jul-16 17:30N 47°16' W 122°23'0 0.0
2018-Jul-16 17:00N 47°16' W 122°23'0 0.0
2018-Jul-16 16:30N 47°16' W 122°23'0 0.0
2018-Jul-16 16:00N 47°16' W 122°23'0 0.0
2018-Jul-16 15:30N 47°16' W 122°23'0 0.0
2018-Jul-16 15:00N 47°16' W 122°23'1 2.3
2018-Jul-16 14:24N 47°16' W 122°24'1 1.6
2018-Jul-16 13:51N 47°16' W 122°23'0 1.2
2018-Jul-16 13:28N 47°16' W 122°23'0 0.0
2018-Jul-16 12:58N 47°16' W 122°23'0 0.0
2018-Jul-16 12:28N 47°16' W 122°23'0 0.0
2018-Jul-16 11:55N 47°16' W 122°23'0 0.0
2018-Jul-16 11:19N 47°16' W 122°23'0 0.0
2018-Jul-16 10:58N 47°16' W 122°23'0 0.0
2018-Jul-16 10:28N 47°16' W 122°23'0 0.0
2018-Jul-16 09:58N 47°16' W 122°23'0 0.0
2018-Jul-16 09:28N 47°16' W 122°23'0 0.0
2018-Jul-16 08:58N 47°16' W 122°23'0 0.0
2018-Jul-16 08:28N 47°16' W 122°23'0 0.0
2018-Jul-16 07:58N 47°16' W 122°23'0 0.0
2018-Jul-16 07:28N 47°16' W 122°23'0 0.0
2018-Jul-16 06:55N 47°16' W 122°23'0 0.0
2018-Jul-16 06:25N 47°16' W 122°23'0 0.0
2018-Jul-16 05:58N 47°16' W 122°23'0 0.0
2018-Jul-16 05:28N 47°16' W 122°23'0 0.0
2018-Jul-16 04:58N 47°16' W 122°23'0 0.0
2018-Jul-16 04:28N 47°16' W 122°23'0 0.0
2018-Jul-16 03:58N 47°16' W 122°23'1 0.1
2018-Jul-15 21:22N 47°16' W 122°24'1 0.1
2018-Jul-15 12:24N 47°16' W 122°23'0 0.0
2018-Jul-15 11:57N 47°16' W 122°23'0 0.0
2018-Jul-15 10:21N 47°16' W 122°23'0 0.0
2018-Jul-15 10:00N 47°16' W 122°23'0 0.0
2018-Jul-15 09:15N 47°16' W 122°23'0 0.0
2018-Jul-15 08:54N 47°16' W 122°23'0 1.0
2018-Jul-15 08:27N 47°16' W 122°23'0 0.0
2018-Jul-15 07:51N 47°16' W 122°23'0 0.0
2018-Jul-15 07:30N 47°16' W 122°23'0 0.0
2018-Jul-15 06:54N 47°16' W 122°23'0 0.0
2018-Jul-15 06:30N 47°16' W 122°23'0 0.0
2018-Jul-15 06:00N 47°16' W 122°23'0 0.0
2018-Jul-15 05:30N 47°16' W 122°23'0 0.0
2018-Jul-15 05:00N 47°16' W 122°23'0 0.0
2018-Jul-15 04:30N 47°16' W 122°23'0 0.0
2018-Jul-15 04:00N 47°16' W 122°23'0 0.0
2018-Jul-15 03:30N 47°16' W 122°23'0 0.1
2018-Jul-14 22:56N 47°16' W 122°24'1 0.6
2018-Jul-14 21:44N 47°17' W 122°25'1 3.0
2018-Jul-14 21:30N 47°17' W 122°25'2 2.9
2018-Jul-14 20:59N 47°18' W 122°27'3 6.3
2018-Jul-14 20:30N 47°21' W 122°26'4 7.7
2018-Jul-14 20:00N 47°23' W 122°22'4 7.9
2018-Jul-14 19:30N 47°27' W 122°25'4 7.7
2018-Jul-14 19:00N 47°30' W 122°26'4 7.5
2018-Jul-14 18:30N 47°34' W 122°27'3 6.1
2018-Jul-14 18:00N 47°36' W 122°23'2 3.6
2018-Jul-14 17:30N 47°36' W 122°21'1 1.4
2018-Jul-14 16:59N 47°35' W 122°21'0 0.2
2018-Jul-14 16:30N 47°35' W 122°21'0 0.2
2018-Jul-14 15:58N 47°35' W 122°21'0 0.0
2018-Jul-14 15:28N 47°35' W 122°21'0 0.0
2018-Jul-14 14:58N 47°35' W 122°21'0 0.0
2018-Jul-14 14:28N 47°35' W 122°21'0 0.0
2018-Jul-14 13:28N 47°35' W 122°21'0 0.0
2018-Jul-14 12:58N 47°35' W 122°21'0 0.0
2018-Jul-14 12:28N 47°35' W 122°21'0 0.0
2018-Jul-14 11:58N 47°35' W 122°21'0 0.0
2018-Jul-14 11:28N 47°35' W 122°21'0 0.0
2018-Jul-14 10:55N 47°35' W 122°21'0 0.0
2018-Jul-14 10:25N 47°35' W 122°21'0 0.0
2018-Jul-14 09:58N 47°35' W 122°21'0 0.0
2018-Jul-14 09:28N 47°35' W 122°21'0 0.0
2018-Jul-14 08:58N 47°35' W 122°21'0 0.0
2018-Jul-14 08:25N 47°35' W 122°21'0 0.0
2018-Jul-14 07:58N 47°35' W 122°21'0 0.0
2018-Jul-14 07:28N 47°35' W 122°21'0 0.0
2018-Jul-14 06:58N 47°35' W 122°21'0 0.0
2018-Jul-14 06:28N 47°35' W 122°21'0 0.0
2018-Jul-14 05:58N 47°35' W 122°21'0 0.0
2018-Jul-14 05:30N 47°35' W 122°21'0 0.0
2018-Jul-14 05:00N 47°35' W 122°21'0 0.7
2018-Jul-14 04:30N 47°34' W 122°21'0 0.0
2018-Jul-14 04:00N 47°34' W 122°21'0 0.7
2018-Jul-14 03:29N 47°35' W 122°21'0 0.0
2018-Jul-14 02:59N 47°35' W 122°21'0 0.0
2018-Jul-14 02:29N 47°35' W 122°21'0 0.0
2018-Jul-14 01:59N 47°35' W 122°21'0 0.0
2018-Jul-14 01:29N 47°35' W 122°21'0 0.0
2018-Jul-14 00:59N 47°35' W 122°21'0 0.0
2018-Jul-14 00:30N 47°35' W 122°21'0 0.0
2018-Jul-14 00:00N 47°35' W 122°21'0 0.0
2018-Jul-13 23:30N 47°35' W 122°21'0 0.0
2018-Jul-13 23:00N 47°35' W 122°21'0 1.0
2018-Jul-13 22:30N 47°35' W 122°21'2 3.3
2018-Jul-13 22:00N 47°37' W 122°22'1 2.5
2018-Jul-13 21:30N 47°38' W 122°23'0 0.1
2018-Jul-13 21:00N 47°38' W 122°23'0 0.0
2018-Jul-13 20:24N 47°38' W 122°23'0 0.0
2018-Jul-13 20:00N 47°38' W 122°23'0 0.0
2018-Jul-13 19:30N 47°38' W 122°23'0 0.0
2018-Jul-13 19:00N 47°38' W 122°23'0 0.0
2018-Jul-13 18:30N 47°38' W 122°23'0 0.0
2018-Jul-13 18:00N 47°38' W 122°23'0 0.0
2018-Jul-13 17:30N 47°38' W 122°23'0 0.0
2018-Jul-13 17:00N 47°38' W 122°23'0 0.0
2018-Jul-13 16:30N 47°38' W 122°23'0 0.0
2018-Jul-13 16:00N 47°38' W 122°23'0 0.0
2018-Jul-13 15:30N 47°38' W 122°23'0 0.0
2018-Jul-13 15:00N 47°38' W 122°23'1 0.6
2018-Jul-13 14:00N 47°37' W 122°24'0 0.9
2018-Jul-13 13:30N 47°37' W 122°24'2 4.6
2018-Jul-13 13:00N 47°35' W 122°26'4 7.6
2018-Jul-13 12:30N 47°31' W 122°25'4 7.4
2018-Jul-13 12:00N 47°28' W 122°24'4 7.7
2018-Jul-13 11:30N 47°24' W 122°21'3 6.5
2018-Jul-13 11:00N 47°21' W 122°23'3 6.9
2018-Jul-13 10:30N 47°19' W 122°27'2 3.9
2018-Jul-13 10:00N 47°17' W 122°26'1 2.0
2018-Jul-13 09:30N 47°16' W 122°25'0 0.7
2018-Jul-13 09:00N 47°16' W 122°25'0 0.0
2018-Jul-13 08:27N 47°16' W 122°25'0 0.0
2018-Jul-13 08:00N 47°16' W 122°25'0 0.0
2018-Jul-13 07:24N 47°16' W 122°25'0 0.0
2018-Jul-13 06:09N 47°16' W 122°25'0 0.0
2018-Jul-13 05:51N 47°16' W 122°25'0 0.0
2018-Jul-13 05:30N 47°16' W 122°25'0 0.0
2018-Jul-13 04:57N 47°16' W 122°25'0 0.0
2018-Jul-13 04:12N 47°16' W 122°25'0 0.0
2018-Jul-13 03:54N 47°16' W 122°25'0 0.0
2018-Jul-13 03:21N 47°16' W 122°25'0 0.0
2018-Jul-13 02:57N 47°16' W 122°25'0 0.0
2018-Jul-13 02:18N 47°16' W 122°25'0 0.0
2018-Jul-13 00:45N 47°16' W 122°25'0 0.0
2018-Jul-13 00:21N 47°16' W 122°25'0 0.0
2018-Jul-12 23:45N 47°16' W 122°25'0 0.0
2018-Jul-12 23:18N 47°16' W 122°25'0 0.0
2018-Jul-12 22:09N 47°16' W 122°25'0 0.0
2018-Jul-12 21:57N 47°16' W 122°25'0 0.0
2018-Jul-12 20:36N 47°16' W 122°25'0 0.0
2018-Jul-12 20:18N 47°16' W 122°25'0 0.0
2018-Jul-12 19:12N 47°16' W 122°25'0 0.0
2018-Jul-12 19:00N 47°16' W 122°25'0 0.0
2018-Jul-12 18:30N 47°16' W 122°25'0 0.7
2018-Jul-12 17:59N 47°16' W 122°25'1 1.7
2018-Jul-12 17:31N 47°17' W 122°25'0 0.3
2018-Jul-12 17:01N 47°17' W 122°26'2 0.5
2018-Jul-12 13:53N 47°17' W 122°23'0 0.0
2018-Jul-12 09:06N 47°17' W 122°23'0 0.6
2018-Jul-12 08:57N 47°17' W 122°23'1 2.7
2018-Jul-12 08:30N 47°17' W 122°25'1 2.0
2018-Jul-12 08:00N 47°17' W 122°26'2 4.0
2018-Jul-12 07:31N 47°19' W 122°28'4 7.1
2018-Jul-12 07:00N 47°22' W 122°24'3 6.3
2018-Jul-12 06:31N 47°25' W 122°23'4 7.8
2018-Jul-12 06:00N 47°28' W 122°26'4 8.1
2018-Jul-12 05:31N 47°32' W 122°27'4 7.5
2018-Jul-12 05:01N 47°36' W 122°25'3 5.1
2018-Jul-12 04:31N 47°36' W 122°21'0 0.7
2018-Jul-12 04:00N 47°35' W 122°21'0 0.0
2018-Jul-12 03:30N 47°35' W 122°21'0 0.0
2018-Jul-12 03:01N 47°35' W 122°21'0 0.0
2018-Jul-12 02:31N 47°35' W 122°21'0 0.0
2018-Jul-12 02:01N 47°35' W 122°21'0 0.0
2018-Jul-12 01:31N 47°35' W 122°21'0 0.0
2018-Jul-12 01:01N 47°35' W 122°21'0 0.0
2018-Jul-12 00:31N 47°35' W 122°21'0 0.0
2018-Jul-12 00:01N 47°35' W 122°21'0 0.0
2018-Jul-11 23:30N 47°35' W 122°21'0 0.0
2018-Jul-11 23:01N 47°35' W 122°21'0 0.0
2018-Jul-11 22:30N 47°35' W 122°21'0 0.0
2018-Jul-11 21:59N 47°35' W 122°21'0 0.0
2018-Jul-11 21:30N 47°35' W 122°21'0 0.0
2018-Jul-11 21:01N 47°35' W 122°21'1 1.2
2018-Jul-11 20:30N 47°36' W 122°22'2 3.1
2018-Jul-11 20:00N 47°36' W 122°24'3 6.9
2018-Jul-11 19:31N 47°33' W 122°26'4 7.5
2018-Jul-11 19:01N 47°29' W 122°24'4 7.9
2018-Jul-11 18:30N 47°26' W 122°22'3 6.8
2018-Jul-11 18:01N 47°22' W 122°22'4 7.7
2018-Jul-11 17:30N 47°20' W 122°26'2 5.0
2018-Jul-11 17:01N 47°17' W 122°26'1 2.4
2018-Jul-11 16:31N 47°16' W 122°25'0 0.6
2018-Jul-11 16:00N 47°16' W 122°25'0 0.0
2018-Jul-11 15:20N 47°16' W 122°25'0 0.0
2018-Jul-11 14:56N 47°16' W 122°25'0 0.0
2018-Jul-11 14:23N 47°16' W 122°25'0 0.0
2018-Jul-11 13:56N 47°16' W 122°25'0 0.0
2018-Jul-11 13:29N 47°16' W 122°25'0 0.0
2018-Jul-11 12:59N 47°16' W 122°25'0 0.0
2018-Jul-11 12:26N 47°16' W 122°25'0 0.0
2018-Jul-11 11:59N 47°16' W 122°25'0 0.0
2018-Jul-11 11:26N 47°16' W 122°25'0 0.0
2018-Jul-11 10:59N 47°16' W 122°25'0 0.0
2018-Jul-11 10:29N 47°16' W 122°25'0 0.0
2018-Jul-11 09:59N 47°16' W 122°25'0 0.0
2018-Jul-11 09:29N 47°16' W 122°25'0 0.0
2018-Jul-11 08:59N 47°16' W 122°25'0 0.0
2018-Jul-11 08:26N 47°16' W 122°25'0 0.0
2018-Jul-11 07:56N 47°16' W 122°25'0 0.0
2018-Jul-11 07:20N 47°16' W 122°25'0 0.0
2018-Jul-11 06:56N 47°16' W 122°25'0 0.0
2018-Jul-11 06:29N 47°16' W 122°25'0 0.0
2018-Jul-11 05:59N 47°16' W 122°25'0 0.0
2018-Jul-11 05:26N 47°16' W 122°25'0 0.0
2018-Jul-11 04:59N 47°16' W 122°25'0 0.0
2018-Jul-11 04:20N 47°16' W 122°25'0 0.0
2018-Jul-11 03:56N 47°16' W 122°25'0 0.0
2018-Jul-11 03:23N 47°16' W 122°25'0 0.0
2018-Jul-11 02:59N 47°16' W 122°25'0 0.0
2018-Jul-11 02:29N 47°16' W 122°25'0 0.1
2018-Jul-11 01:59N 47°16' W 122°25'0 0.0
2018-Jul-11 01:29N 47°16' W 122°25'0 0.0
2018-Jul-11 00:59N 47°16' W 122°25'0 0.0
2018-Jul-11 00:23N 47°16' W 122°25'0 0.0
2018-Jul-10 16:35N 47°16' W 122°25'0 0.2
2018-Jul-10 16:29N 47°16' W 122°25'1 2.1
2018-Jul-10 16:00N 47°17' W 122°25'1 0.3
2018-Jul-10 11:56N 47°17' W 122°23'0 0.0
2018-Jul-10 11:26N 47°17' W 122°23'0 0.0
2018-Jul-10 10:59N 47°17' W 122°23'0 0.0
2018-Jul-10 10:29N 47°17' W 122°23'0 0.0
2018-Jul-10 09:56N 47°17' W 122°23'0 0.0
2018-Jul-10 09:29N 47°17' W 122°23'0 0.0
2018-Jul-10 08:56N 47°17' W 122°23'0 0.0
2018-Jul-10 08:26N 47°17' W 122°23'0 0.0
2018-Jul-10 07:59N 47°17' W 122°23'0 0.0
2018-Jul-10 07:20N 47°17' W 122°23'0 0.0
2018-Jul-10 06:53N 47°17' W 122°23'0 0.0
2018-Jul-10 06:29N 47°17' W 122°23'0 0.0
2018-Jul-10 05:59N 47°17' W 122°23'0 0.0
2018-Jul-10 05:29N 47°17' W 122°23'0 0.0
2018-Jul-10 04:59N 47°17' W 122°23'  
Track history (hours):
 
Tides and Currents Weather Stations Pressure Air Temp Water Temp Dewpoint Dewpoint Depression Visibility Wind Speed Wind Dir Waves Ship Positions

Eagle

Owner: Harley Marine Services, INC, SEATTLE, WA. More information available from US FCC via Universal Licensing System and Coast Guard Vessel Documentation Center.

Last reported at 2018-Jul-20 04:29 UTC. Time now 2018-Jul-20 04:31 UTC.
Position N 47°35' W 122°21'.

Length 32 m; draft 4 m.

Type: Towing. MMSI: 366978690.

Date/timePositionNaut miles runAvg speedWind from/ knotsBaromVisibWave heightAir tempDewpointWater temp
2018-Jul-20 04:29N 47°35' W 122°21'1 1.9
2018-Jul-20 04:00N 47°34' W 122°21'0 0.0
2018-Jul-20 03:30N 47°34' W 122°21'0 0.0
2018-Jul-20 02:59N 47°34' W 122°21'1 2.1
2018-Jul-20 02:30N 47°35' W 122°21'0 0.2
2018-Jul-20 02:00N 47°35' W 122°21'0 0.0
2018-Jul-20 01:29N 47°35' W 122°21'0 0.1
2018-Jul-20 00:59N 47°35' W 122°21'0 0.0
2018-Jul-20 00:29N 47°35' W 122°21'0 0.0
2018-Jul-19 23:53N 47°35' W 122°21'0 0.0
2018-Jul-19 23:29N 47°35' W 122°21'1 2.1
2018-Jul-19 22:59N 47°36' W 122°22'3 6.3
2018-Jul-19 22:31N 47°34' W 122°26'4 8.6
2018-Jul-19 22:00N 47°31' W 122°29'5 9.0
2018-Jul-19 21:30N 47°26' W 122°31'4 9.1
2018-Jul-19 21:01N 47°22' W 122°32'3 6.6
2018-Jul-19 20:30N 47°19' W 122°30'4 7.4
2018-Jul-19 20:00N 47°17' W 122°25'2 0.3
2018-Jul-19 14:01N 47°16' W 122°23'1 1.9
2018-Jul-19 13:15N 47°17' W 122°25'0 1.7
2018-Jul-19 13:00N 47°17' W 122°25'1 1.4
2018-Jul-19 12:07N 47°17' W 122°23'1 1.1
2018-Jul-19 11:37N 47°17' W 122°24'1 6.2
2018-Jul-19 11:30N 47°17' W 122°25'2 1.4
2018-Jul-19 09:59N 47°16' W 122°23'0 0.0
2018-Jul-19 09:29N 47°16' W 122°23'0 0.0
2018-Jul-19 08:59N 47°16' W 122°23'0 0.0
2018-Jul-19 08:29N 47°16' W 122°23'0 0.0
2018-Jul-19 07:56N 47°16' W 122°23'0 0.0
2018-Jul-19 07:29N 47°16' W 122°23'0 0.0
2018-Jul-19 06:59N 47°16' W 122°23'0 0.0
2018-Jul-19 06:29N 47°16' W 122°23'0 0.0
2018-Jul-19 05:59N 47°16' W 122°23'0 0.0
2018-Jul-19 05:29N 47°16' W 122°23'0 0.0
2018-Jul-19 04:59N 47°16' W 122°23'0 0.0
2018-Jul-19 04:26N 47°16' W 122°23'0 0.0
2018-Jul-19 03:59N 47°16' W 122°23'0 0.0
2018-Jul-19 03:23N 47°16' W 122°23'0 0.0
2018-Jul-19 02:50N 47°16' W 122°23'0 0.0
2018-Jul-19 02:29N 47°16' W 122°23'0 0.0
2018-Jul-19 01:58N 47°16' W 122°23'0 0.0
2018-Jul-19 01:28N 47°16' W 122°23'0 0.0
2018-Jul-19 00:55N 47°16' W 122°23'0 0.0
2018-Jul-19 00:28N 47°16' W 122°23'0 0.0
2018-Jul-18 23:52N 47°16' W 122°23'0 0.3
2018-Jul-18 23:17N 47°16' W 122°23'1 2.2
2018-Jul-18 22:50N 47°16' W 122°24'0 0.1
2018-Jul-18 18:46N 47°16' W 122°24'1 0.1
2018-Jul-18 03:33N 47°16' W 122°23'0 0.0
2018-Jul-18 03:27N 47°16' W 122°23'2 1.6
2018-Jul-18 02:25N 47°17' W 122°25'0 0.0
2018-Jul-18 01:49N 47°17' W 122°25'0 0.0
2018-Jul-18 01:28N 47°17' W 122°25'0 0.0
2018-Jul-18 00:55N 47°17' W 122°25'0 0.0
2018-Jul-18 00:13N 47°17' W 122°25'0 0.0
2018-Jul-17 23:55N 47°17' W 122°25'0 0.0
2018-Jul-17 17:55N 47°17' W 122°25'0 0.0
2018-Jul-17 17:28N 47°17' W 122°25'0 0.0
2018-Jul-17 16:36N 47°17' W 122°25'0 0.0
2018-Jul-17 16:27N 47°17' W 122°25'0 0.0
2018-Jul-17 15:43N 47°17' W 122°25'0 0.0
2018-Jul-17 15:28N 47°17' W 122°25'0 0.0
2018-Jul-17 06:17N 47°17' W 122°24'1 2.5
2018-Jul-17 06:00N 47°17' W 122°25'2 3.8
2018-Jul-17 05:28N 47°16' W 122°23'1 0.1
2018-Jul-16 21:14N 47°16' W 122°24'1 0.9
2018-Jul-16 20:39N 47°16' W 122°23'0 0.0
2018-Jul-16 20:21N 47°16' W 122°23'0 0.0
2018-Jul-16 20:00N 47°16' W 122°23'0 0.0
2018-Jul-16 19:30N 47°16' W 122°23'0 0.0
2018-Jul-16 19:00N 47°16' W 122°23'0 0.0
2018-Jul-16 18:30N 47°16' W 122°23'0 0.0
2018-Jul-16 18:00N 47°16' W 122°23'0 0.0
2018-Jul-16 17:30N 47°16' W 122°23'0 0.0
2018-Jul-16 17:00N 47°16' W 122°23'0 0.0
2018-Jul-16 16:30N 47°16' W 122°23'0 0.0
2018-Jul-16 16:00N 47°16' W 122°23'0 0.0
2018-Jul-16 15:30N 47°16' W 122°23'0 0.0
2018-Jul-16 15:00N 47°16' W 122°23'1 2.3
2018-Jul-16 14:24N 47°16' W 122°24'1 1.6
2018-Jul-16 13:51N 47°16' W 122°23'0 1.2
2018-Jul-16 13:28N 47°16' W 122°23'0 0.0
2018-Jul-16 12:58N 47°16' W 122°23'0 0.0
2018-Jul-16 12:28N 47°16' W 122°23'0 0.0
2018-Jul-16 11:55N 47°16' W 122°23'0 0.0
2018-Jul-16 11:19N 47°16' W 122°23'0 0.0
2018-Jul-16 10:58N 47°16' W 122°23'0 0.0
2018-Jul-16 10:28N 47°16' W 122°23'0 0.0
2018-Jul-16 09:58N 47°16' W 122°23'0 0.0
2018-Jul-16 09:28N 47°16' W 122°23'0 0.0
2018-Jul-16 08:58N 47°16' W 122°23'0 0.0
2018-Jul-16 08:28N 47°16' W 122°23'0 0.0
2018-Jul-16 07:58N 47°16' W 122°23'0 0.0
2018-Jul-16 07:28N 47°16' W 122°23'0 0.0
2018-Jul-16 06:55N 47°16' W 122°23'0 0.0
2018-Jul-16 06:25N 47°16' W 122°23'0 0.0
2018-Jul-16 05:58N 47°16' W 122°23'0 0.0
2018-Jul-16 05:28N 47°16' W 122°23'0 0.0
2018-Jul-16 04:58N 47°16' W 122°23'0 0.0
2018-Jul-16 04:28N 47°16' W 122°23'0 0.0
2018-Jul-16 03:58N 47°16' W 122°23'1 0.1
2018-Jul-15 21:22N 47°16' W 122°24'1 0.1
2018-Jul-15 12:24N 47°16' W 122°23'0 0.0
2018-Jul-15 11:57N 47°16' W 122°23'0 0.0
2018-Jul-15 10:21N 47°16' W 122°23'0 0.0
2018-Jul-15 10:00N 47°16' W 122°23'0 0.0
2018-Jul-15 09:15N 47°16' W 122°23'0 0.0
2018-Jul-15 08:54N 47°16' W 122°23'0 1.0
2018-Jul-15 08:27N 47°16' W 122°23'0 0.0
2018-Jul-15 07:51N 47°16' W 122°23'0 0.0
2018-Jul-15 07:30N 47°16' W 122°23'0 0.0
2018-Jul-15 06:54N 47°16' W 122°23'0 0.0
2018-Jul-15 06:30N 47°16' W 122°23'0 0.0
2018-Jul-15 06:00N 47°16' W 122°23'0 0.0
2018-Jul-15 05:30N 47°16' W 122°23'0 0.0
2018-Jul-15 05:00N 47°16' W 122°23'0 0.0
2018-Jul-15 04:30N 47°16' W 122°23'0 0.0
2018-Jul-15 04:00N 47°16' W 122°23'0 0.0
2018-Jul-15 03:30N 47°16' W 122°23'0 0.1
2018-Jul-14 22:56N 47°16' W 122°24'1 0.6
2018-Jul-14 21:44N 47°17' W 122°25'1 3.0
2018-Jul-14 21:30N 47°17' W 122°25'2 2.9
2018-Jul-14 20:59N 47°18' W 122°27'3 6.3
2018-Jul-14 20:30N 47°21' W 122°26'4 7.7
2018-Jul-14 20:00N 47°23' W 122°22'4 7.9
2018-Jul-14 19:30N 47°27' W 122°25'4 7.7
2018-Jul-14 19:00N 47°30' W 122°26'4 7.5
2018-Jul-14 18:30N 47°34' W 122°27'3 6.1
2018-Jul-14 18:00N 47°36' W 122°23'2 3.6
2018-Jul-14 17:30N 47°36' W 122°21'1 1.4
2018-Jul-14 16:59N 47°35' W 122°21'0 0.2
2018-Jul-14 16:30N 47°35' W 122°21'0 0.2
2018-Jul-14 15:58N 47°35' W 122°21'0 0.0
2018-Jul-14 15:28N 47°35' W 122°21'0 0.0
2018-Jul-14 14:58N 47°35' W 122°21'0 0.0
2018-Jul-14 14:28N 47°35' W 122°21'0 0.0
2018-Jul-14 13:28N 47°35' W 122°21'0 0.0
2018-Jul-14 12:58N 47°35' W 122°21'0 0.0
2018-Jul-14 12:28N 47°35' W 122°21'0 0.0
2018-Jul-14 11:58N 47°35' W 122°21'0 0.0
2018-Jul-14 11:28N 47°35' W 122°21'0 0.0
2018-Jul-14 10:55N 47°35' W 122°21'0 0.0
2018-Jul-14 10:25N 47°35' W 122°21'0 0.0
2018-Jul-14 09:58N 47°35' W 122°21'0 0.0
2018-Jul-14 09:28N 47°35' W 122°21'0 0.0
2018-Jul-14 08:58N 47°35' W 122°21'0 0.0
2018-Jul-14 08:25N 47°35' W 122°21'0 0.0
2018-Jul-14 07:58N 47°35' W 122°21'0 0.0
2018-Jul-14 07:28N 47°35' W 122°21'0 0.0
2018-Jul-14 06:58N 47°35' W 122°21'0 0.0
2018-Jul-14 06:28N 47°35' W 122°21'0 0.0
2018-Jul-14 05:58N 47°35' W 122°21'0 0.0
2018-Jul-14 05:30N 47°35' W 122°21'0 0.0
2018-Jul-14 05:00N 47°35' W 122°21'0 0.7
2018-Jul-14 04:30N 47°34' W 122°21'0 0.0
2018-Jul-14 04:00N 47°34' W 122°21'0 0.7
2018-Jul-14 03:29N 47°35' W 122°21'0 0.0
2018-Jul-14 02:59N 47°35' W 122°21'0 0.0
2018-Jul-14 02:29N 47°35' W 122°21'0 0.0
2018-Jul-14 01:59N 47°35' W 122°21'0 0.0
2018-Jul-14 01:29N 47°35' W 122°21'0 0.0
2018-Jul-14 00:59N 47°35' W 122°21'0 0.0
2018-Jul-14 00:30N 47°35' W 122°21'0 0.0
2018-Jul-14 00:00N 47°35' W 122°21'0 0.0
2018-Jul-13 23:30N 47°35' W 122°21'0 0.0
2018-Jul-13 23:00N 47°35' W 122°21'0 1.0
2018-Jul-13 22:30N 47°35' W 122°21'2 3.3
2018-Jul-13 22:00N 47°37' W 122°22'1 2.5
2018-Jul-13 21:30N 47°38' W 122°23'0 0.1
2018-Jul-13 21:00N 47°38' W 122°23'0 0.0
2018-Jul-13 20:24N 47°38' W 122°23'0 0.0
2018-Jul-13 20:00N 47°38' W 122°23'0 0.0
2018-Jul-13 19:30N 47°38' W 122°23'0 0.0
2018-Jul-13 19:00N 47°38' W 122°23'0 0.0
2018-Jul-13 18:30N 47°38' W 122°23'0 0.0
2018-Jul-13 18:00N 47°38' W 122°23'0 0.0
2018-Jul-13 17:30N 47°38' W 122°23'0 0.0
2018-Jul-13 17:00N 47°38' W 122°23'0 0.0
2018-Jul-13 16:30N 47°38' W 122°23'0 0.0
2018-Jul-13 16:00N 47°38' W 122°23'0 0.0
2018-Jul-13 15:30N 47°38' W 122°23'0 0.0
2018-Jul-13 15:00N 47°38' W 122°23'1 0.6
2018-Jul-13 14:00N 47°37' W 122°24'0 0.9
2018-Jul-13 13:30N 47°37' W 122°24'2 4.6
2018-Jul-13 13:00N 47°35' W 122°26'4 7.6
2018-Jul-13 12:30N 47°31' W 122°25'4 7.4
2018-Jul-13 12:00N 47°28' W 122°24'4 7.7
2018-Jul-13 11:30N 47°24' W 122°21'3 6.5
2018-Jul-13 11:00N 47°21' W 122°23'3 6.9
2018-Jul-13 10:30N 47°19' W 122°27'2 3.9
2018-Jul-13 10:00N 47°17' W 122°26'1 2.0
2018-Jul-13 09:30N 47°16' W 122°25'0 0.7
2018-Jul-13 09:00N 47°16' W 122°25'0 0.0
2018-Jul-13 08:27N 47°16' W 122°25'0 0.0
2018-Jul-13 08:00N 47°16' W 122°25'0 0.0
2018-Jul-13 07:24N 47°16' W 122°25'0 0.0
2018-Jul-13 06:09N 47°16' W 122°25'0 0.0
2018-Jul-13 05:51N 47°16' W 122°25'0 0.0
2018-Jul-13 05:30N 47°16' W 122°25'0 0.0
2018-Jul-13 04:57N 47°16' W 122°25'0 0.0
2018-Jul-13 04:12N 47°16' W 122°25'0 0.0
2018-Jul-13 03:54N 47°16' W 122°25'0 0.0
2018-Jul-13 03:21N 47°16' W 122°25'0 0.0
2018-Jul-13 02:57N 47°16' W 122°25'0 0.0
2018-Jul-13 02:18N 47°16' W 122°25'0 0.0
2018-Jul-13 00:45N 47°16' W 122°25'0 0.0
2018-Jul-13 00:21N 47°16' W 122°25'0 0.0
2018-Jul-12 23:45N 47°16' W 122°25'0 0.0
2018-Jul-12 23:18N 47°16' W 122°25'0 0.0
2018-Jul-12 22:09N 47°16' W 122°25'0 0.0
2018-Jul-12 21:57N 47°16' W 122°25'0 0.0
2018-Jul-12 20:36N 47°16' W 122°25'0 0.0
2018-Jul-12 20:18N 47°16' W 122°25'0 0.0
2018-Jul-12 19:12N 47°16' W 122°25'0 0.0
2018-Jul-12 19:00N 47°16' W 122°25'0 0.0
2018-Jul-12 18:30N 47°16' W 122°25'0 0.7
2018-Jul-12 17:59N 47°16' W 122°25'1 1.7
2018-Jul-12 17:31N 47°17' W 122°25'0 0.3
2018-Jul-12 17:01N 47°17' W 122°26'2 0.5
2018-Jul-12 13:53N 47°17' W 122°23'0 0.0
2018-Jul-12 09:06N 47°17' W 122°23'0 0.6
2018-Jul-12 08:57N 47°17' W 122°23'1 2.7
2018-Jul-12 08:30N 47°17' W 122°25'1 2.0
2018-Jul-12 08:00N 47°17' W 122°26'2 4.0
2018-Jul-12 07:31N 47°19' W 122°28'4 7.1
2018-Jul-12 07:00N 47°22' W 122°24'3 6.3
2018-Jul-12 06:31N 47°25' W 122°23'4 7.8
2018-Jul-12 06:00N 47°28' W 122°26'4 8.1
2018-Jul-12 05:31N 47°32' W 122°27'4 7.5
2018-Jul-12 05:01N 47°36' W 122°25'3 5.1
2018-Jul-12 04:31N 47°36' W 122°21'0 0.7
2018-Jul-12 04:00N 47°35' W 122°21'0 0.0
2018-Jul-12 03:30N 47°35' W 122°21'0 0.0
2018-Jul-12 03:01N 47°35' W 122°21'0 0.0
2018-Jul-12 02:31N 47°35' W 122°21'0 0.0
2018-Jul-12 02:01N 47°35' W 122°21'0 0.0
2018-Jul-12 01:31N 47°35' W 122°21'0 0.0
2018-Jul-12 01:01N 47°35' W 122°21'0 0.0
2018-Jul-12 00:31N 47°35' W 122°21'0 0.0
2018-Jul-12 00:01N 47°35' W 122°21'0 0.0
2018-Jul-11 23:30N 47°35' W 122°21'0 0.0
2018-Jul-11 23:01N 47°35' W 122°21'0 0.0
2018-Jul-11 22:30N 47°35' W 122°21'0 0.0
2018-Jul-11 21:59N 47°35' W 122°21'0 0.0
2018-Jul-11 21:30N 47°35' W 122°21'0 0.0
2018-Jul-11 21:01N 47°35' W 122°21'1 1.2
2018-Jul-11 20:30N 47°36' W 122°22'2 3.1
2018-Jul-11 20:00N 47°36' W 122°24'3 6.9
2018-Jul-11 19:31N 47°33' W 122°26'4 7.5
2018-Jul-11 19:01N 47°29' W 122°24'4 7.9
2018-Jul-11 18:30N 47°26' W 122°22'3 6.8
2018-Jul-11 18:01N 47°22' W 122°22'4 7.7
2018-Jul-11 17:30N 47°20' W 122°26'2 5.0
2018-Jul-11 17:01N 47°17' W 122°26'1 2.4
2018-Jul-11 16:31N 47°16' W 122°25'0 0.6
2018-Jul-11 16:00N 47°16' W 122°25'0 0.0
2018-Jul-11 15:20N 47°16' W 122°25'0 0.0
2018-Jul-11 14:56N 47°16' W 122°25'0 0.0
2018-Jul-11 14:23N 47°16' W 122°25'0 0.0
2018-Jul-11 13:56N 47°16' W 122°25'0 0.0
2018-Jul-11 13:29N 47°16' W 122°25'0 0.0
2018-Jul-11 12:59N 47°16' W 122°25'0 0.0
2018-Jul-11 12:26N 47°16' W 122°25'0 0.0
2018-Jul-11 11:59N 47°16' W 122°25'0 0.0
2018-Jul-11 11:26N 47°16' W 122°25'0 0.0
2018-Jul-11 10:59N 47°16' W 122°25'0 0.0
2018-Jul-11 10:29N 47°16' W 122°25'0 0.0
2018-Jul-11 09:59N 47°16' W 122°25'0 0.0
2018-Jul-11 09:29N 47°16' W 122°25'0 0.0
2018-Jul-11 08:59N 47°16' W 122°25'0 0.0
2018-Jul-11 08:26N 47°16' W 122°25'0 0.0
2018-Jul-11 07:56N 47°16' W 122°25'0 0.0
2018-Jul-11 07:20N 47°16' W 122°25'0 0.0
2018-Jul-11 06:56N 47°16' W 122°25'0 0.0
2018-Jul-11 06:29N 47°16' W 122°25'0 0.0
2018-Jul-11 05:59N 47°16' W 122°25'0 0.0
2018-Jul-11 05:26N 47°16' W 122°25'0 0.0
2018-Jul-11 04:59N 47°16' W 122°25'0 0.0
2018-Jul-11 04:20N 47°16' W 122°25'0 0.0
2018-Jul-11 03:56N 47°16' W 122°25'0 0.0
2018-Jul-11 03:23N 47°16' W 122°25'0 0.0
2018-Jul-11 02:59N 47°16' W 122°25'0 0.0
2018-Jul-11 02:29N 47°16' W 122°25'0 0.1
2018-Jul-11 01:59N 47°16' W 122°25'0 0.0
2018-Jul-11 01:29N 47°16' W 122°25'0 0.0
2018-Jul-11 00:59N 47°16' W 122°25'0 0.0
2018-Jul-11 00:23N 47°16' W 122°25'0 0.0
2018-Jul-10 16:35N 47°16' W 122°25'0 0.2
2018-Jul-10 16:29N 47°16' W 122°25'1 2.1
2018-Jul-10 16:00N 47°17' W 122°25'1 0.3
2018-Jul-10 11:56N 47°17' W 122°23'0 0.0
2018-Jul-10 11:26N 47°17' W 122°23'0 0.0
2018-Jul-10 10:59N 47°17' W 122°23'0 0.0
2018-Jul-10 10:29N 47°17' W 122°23'0 0.0
2018-Jul-10 09:56N 47°17' W 122°23'0 0.0
2018-Jul-10 09:29N 47°17' W 122°23'0 0.0
2018-Jul-10 08:56N 47°17' W 122°23'0 0.0
2018-Jul-10 08:26N 47°17' W 122°23'0 0.0
2018-Jul-10 07:59N 47°17' W 122°23'0 0.0
2018-Jul-10 07:20N 47°17' W 122°23'0 0.0
2018-Jul-10 06:53N 47°17' W 122°23'0 0.0
2018-Jul-10 06:29N 47°17' W 122°23'0 0.0
2018-Jul-10 05:59N 47°17' W 122°23'0 0.0
2018-Jul-10 05:29N 47°17' W 122°23'0 0.0
2018-Jul-10 04:59N 47°17' W 122°23'  

Dump ship's entire track history